Terminal Aerodrome Forecast
Issued by NWS

Current Version | Previous Version | Text Only | Print | Product List | Glossary Off
Versions: 1 2 3 4 5 6 7 8 9 10 11 12 13 14 15 16 17 18 19 20 21 22 23 24 25 26 27 28 29 30 31

000
FTUS41 KRNK 030339 AAC
TAFLWB
TAF AMD
KLWB 030339Z 0304/0324 00000KT P6SM OVC060
      TEMPO 0305/0308 4SM BR OVC007
     FM030800 00000KT 1/2SM FG OVC003
     FM031500 27008KT P6SM OVC025
     FM032100 27006KT P6SM BKN035=

USA.gov is the U.S. government's official web portal to all federal, state and local government web resources and services.